Time;durP1;ratioP1;P1;durP2;ratioP2;P2;SDS_P1;SDS_P2;PMS_P1;PMS_P2;Temp;Humidity;BMP_temperature;BMP_pressure;BME280_temperature;BME280_humidity;BME280_pressure;Samples;Min_cycle;Max_cycle;Signal;HPM_P1;HPM_P2
2022/12/03 00:02:05;;;;;;;0.20;0.20;;;4.70;99.90;;;;;;5012759;28;20187;-87
2022/12/03 00:04:30;;;;;;;0.30;0.30;;;4.60;99.90;;;;;;5053041;28;20179;-87
2022/12/03 00:06:56;;;;;;;0.30;0.30;;;4.60;99.90;;;;;;5038308;28;20213;-87
2022/12/03 00:09:21;;;;;;;0.30;0.30;;;4.60;99.90;;;;;;4965519;28;20199;-87
2022/12/03 00:11:47;;;;;;;0.30;0.30;;;4.60;99.90;;;;;;5036093;28;20190;-87
2022/12/03 00:14:12;;;;;;;0.30;0.30;;;4.60;99.90;;;;;;5033073;28;20269;-87
2022/12/03 00:16:38;;;;;;;0.30;0.30;;;4.60;99.90;;;;;;5048686;28;20195;-87
2022/12/03 00:19:03;;;;;;;0.30;0.30;;;4.60;99.90;;;;;;5009815;28;20187;-87
2022/12/03 00:21:29;;;;;;;0.30;0.30;;;4.60;99.90;;;;;;5031539;28;20550;-87
2022/12/03 00:23:54;;;;;;;0.30;0.30;;;4.50;99.90;;;;;;4959041;28;20674;-87
2022/12/03 00:26:20;;;;;;;0.30;0.30;;;4.60;99.90;;;;;;5028804;28;20207;-86
2022/12/03 00:28:45;;;;;;;0.30;0.30;;;4.50;99.90;;;;;;5034619;28;20273;-86
2022/12/03 00:31:11;;;;;;;0.20;0.20;;;4.50;99.90;;;;;;4979078;28;20220;-85
2022/12/03 00:33:36;;;;;;;0.30;0.30;;;4.50;99.90;;;;;;5050894;28;20225;-85
2022/12/03 00:36:02;;;;;;;0.30;0.30;;;4.50;99.90;;;;;;4963889;28;20194;-86
2022/12/03 00:38:27;;;;;;;0.30;0.30;;;4.50;99.90;;;;;;5023765;28;20184;-86
2022/12/03 00:40:53;;;;;;;0.23;0.23;;;4.50;99.90;;;;;;5043889;28;20187;-86
2022/12/03 00:43:18;;;;;;;0.20;0.20;;;4.50;99.90;;;;;;5031065;28;20246;-85
2022/12/03 00:45:44;;;;;;;0.23;0.23;;;4.40;99.90;;;;;;5032200;28;20198;-86
2022/12/03 00:48:09;;;;;;;0.30;0.30;;;4.40;99.90;;;;;;5044245;28;20183;-85
2022/12/03 00:50:35;;;;;;;0.30;0.30;;;4.40;99.90;;;;;;5018797;28;20185;-85
2022/12/03 00:53:00;;;;;;;0.30;0.30;;;4.40;99.90;;;;;;4962146;28;20569;-86
2022/12/03 00:55:26;;;;;;;0.30;0.30;;;4.40;99.90;;;;;;4995708;28;20265;-85
2022/12/03 00:57:51;;;;;;;0.30;0.30;;;4.40;99.90;;;;;;5031988;28;20178;-86
2022/12/03 01:00:17;;;;;;;0.30;0.30;;;4.40;99.90;;;;;;4980196;28;20677;-85
2022/12/03 01:02:42;;;;;;;0.30;0.30;;;4.40;99.90;;;;;;5049665;28;20217;-86
2022/12/03 01:05:08;;;;;;;0.30;0.30;;;4.40;99.90;;;;;;5050439;28;20195;-86
2022/12/03 01:07:35;;;;;;;0.30;0.30;;;4.40;99.90;;;;;;5012926;28;20183;-86
2022/12/03 01:10:01;;;;;;;0.20;0.20;;;4.40;99.90;;;;;;5048025;28;20171;-85
2022/12/03 01:12:26;;;;;;;0.30;0.30;;;4.40;99.90;;;;;;5030430;28;20448;-85
2022/12/03 01:14:52;;;;;;;0.30;0.30;;;4.40;99.90;;;;;;5021606;28;20449;-85
2022/12/03 01:17:17;;;;;;;0.30;0.30;;;4.40;99.90;;;;;;5006046;28;20202;-86
2022/12/03 01:19:43;;;;;;;0.20;0.20;;;4.40;99.90;;;;;;5028759;28;20175;-85
2022/12/03 01:22:08;;;;;;;0.30;0.30;;;4.40;99.90;;;;;;5049285;28;20209;-86
2022/12/03 01:24:34;;;;;;;0.30;0.30;;;4.40;99.90;;;;;;5018589;28;20182;-86
2022/12/03 01:26:59;;;;;;;0.30;0.30;;;4.40;99.90;;;;;;4970840;28;20198;-86
2022/12/03 01:29:25;;;;;;;0.30;0.30;;;4.40;99.90;;;;;;5031786;28;20191;-85
2022/12/03 01:34:35;;;;;;;0.30;0.30;;;4.40;99.90;;;;;;5031343;28;20850;-87
2022/12/03 01:37:01;;;;;;;0.20;0.20;;;4.40;99.90;;;;;;5045487;28;20454;-86
2022/12/03 01:39:26;;;;;;;0.30;0.30;;;4.40;99.90;;;;;;5049883;28;20206;-86
2022/12/03 01:41:53;;;;;;;0.30;0.30;;;4.40;99.90;;;;;;5008428;28;20230;-85
2022/12/03 01:44:27;;;;;;;0.30;0.30;;;4.40;99.90;;;;;;5049269;28;20186;-87
2022/12/03 01:46:55;;;;;;;0.27;0.27;;;4.40;99.90;;;;;;5032013;28;20432;-87
2022/12/03 01:49:27;;;;;;;0.30;0.30;;;4.40;99.90;;;;;;5045613;28;20503;-86
2022/12/03 01:51:54;;;;;;;0.30;0.30;;;4.40;99.90;;;;;;5022869;28;20431;-86
2022/12/03 01:54:36;;;;;;;0.30;0.30;;;4.50;99.90;;;;;;5047977;28;20441;-86
2022/12/03 01:57:01;;;;;;;0.30;0.30;;;4.50;99.90;;;;;;5011225;28;20767;-86
2022/12/03 01:59:34;;;;;;;0.30;0.30;;;4.40;99.90;;;;;;5046083;28;21021;-86
2022/12/03 02:02:10;;;;;;;0.30;0.30;;;4.50;99.90;;;;;;5038397;28;20171;-87
2022/12/03 02:04:35;;;;;;;0.30;0.30;;;4.40;99.90;;;;;;4992306;28;20445;-86
2022/12/03 02:07:33;;;;;;;0.30;0.30;;;4.40;99.90;;;;;;5046911;28;20444;-86
2022/12/03 02:10:02;;;;;;;0.30;0.30;;;4.40;99.90;;;;;;5016087;28;20190;-86
2022/12/03 02:12:33;;;;;;;0.30;0.30;;;4.40;99.90;;;;;;5047480;28;20500;-86
2022/12/03 02:14:59;;;;;;;0.30;0.30;;;4.40;99.90;;;;;;5023786;28;20441;-86
2022/12/03 02:17:25;;;;;;;0.30;0.30;;;4.40;99.90;;;;;;5018800;28;20449;-86
2022/12/03 02:19:51;;;;;;;0.30;0.30;;;4.40;99.90;;;;;;5041913;28;20449;-85
2022/12/03 02:22:38;;;;;;;0.30;0.30;;;4.40;99.90;;;;;;4996069;28;21008;-85
2022/12/03 02:25:13;;;;;;;0.30;0.30;;;4.40;99.90;;;;;;4993968;28;20857;-86
2022/12/03 02:27:40;;;;;;;0.30;0.30;;;4.50;99.90;;;;;;5030210;28;20771;-87
2022/12/03 02:30:07;;;;;;;0.30;0.30;;;4.50;99.90;;;;;;5031089;28;20794;-86
2022/12/03 02:32:32;;;;;;;0.33;0.33;;;4.50;99.90;;;;;;5018861;28;20479;-87
2022/12/03 02:34:58;;;;;;;0.30;0.30;;;4.50;99.90;;;;;;5043037;28;21198;-87
2022/12/03 02:37:31;;;;;;;0.27;0.27;;;4.50;99.90;;;;;;5044246;28;20658;-86
2022/12/03 02:40:01;;;;;;;0.30;0.30;;;4.50;99.90;;;;;;5047704;28;20205;-86
2022/12/03 02:42:36;;;;;;;0.30;0.30;;;4.50;99.90;;;;;;5042093;28;20486;-86
2022/12/03 02:45:25;;;;;;;0.30;0.30;;;4.50;99.90;;;;;;5029410;28;20418;-86
2022/12/03 02:47:57;;;;;;;0.20;0.20;;;4.50;99.90;;;;;;5014234;28;20472;-86
2022/12/03 02:50:30;;;;;;;0.30;0.30;;;4.50;99.90;;;;;;5006958;28;20453;-86
2022/12/03 02:52:59;;;;;;;0.30;0.30;;;4.50;99.90;;;;;;4987961;28;20490;-87
2022/12/03 02:55:28;;;;;;;0.30;0.30;;;4.50;99.90;;;;;;4998641;28;20430;-86
2022/12/03 02:57:53;;;;;;;0.27;0.27;;;4.50;99.90;;;;;;5022994;28;20772;-87
2022/12/03 03:00:19;;;;;;;0.30;0.30;;;4.50;99.90;;;;;;5002912;28;20465;-87
2022/12/03 03:02:46;;;;;;;0.30;0.30;;;4.50;99.90;;;;;;5014304;28;20223;-86
2022/12/03 03:05:13;;;;;;;0.30;0.30;;;4.50;99.90;;;;;;5025979;28;20497;-86
2022/12/03 03:07:40;;;;;;;0.20;0.20;;;4.50;99.90;;;;;;5028111;28;20943;-86
2022/12/03 03:10:07;;;;;;;0.30;0.30;;;4.50;99.90;;;;;;5027591;28;20462;-86
2022/12/03 03:12:33;;;;;;;0.20;0.20;;;4.50;99.90;;;;;;5027219;28;20449;-87
2022/12/03 03:14:59;;;;;;;0.30;0.30;;;4.50;99.90;;;;;;5010328;28;20471;-86
2022/12/03 03:17:24;;;;;;;0.30;0.30;;;4.50;99.90;;;;;;5026636;28;20191;-85
2022/12/03 03:19:50;;;;;;;0.30;0.30;;;4.50;99.90;;;;;;5026275;28;20452;-87
2022/12/03 03:22:16;;;;;;;0.30;0.30;;;4.50;99.90;;;;;;5029136;28;20235;-86
2022/12/03 03:24:41;;;;;;;0.20;0.20;;;4.40;99.90;;;;;;5027117;28;20211;-85
2022/12/03 03:27:07;;;;;;;0.30;0.30;;;4.50;99.90;;;;;;5026601;28;20283;-86
2022/12/03 03:29:33;;;;;;;0.30;0.30;;;4.50;99.90;;;;;;5026962;28;20223;-86
2022/12/03 03:32:00;;;;;;;0.23;0.23;;;4.50;99.90;;;;;;5027293;28;20187;-85
2022/12/03 03:34:26;;;;;;;0.30;0.30;;;4.50;99.90;;;;;;4986411;28;20446;-86
2022/12/03 03:36:52;;;;;;;0.20;0.20;;;4.50;99.90;;;;;;5027203;28;20450;-85
2022/12/03 03:39:17;;;;;;;0.30;0.30;;;4.50;99.90;;;;;;5026667;28;20500;-86
2022/12/03 03:41:45;;;;;;;0.30;0.30;;;4.50;99.90;;;;;;5011856;28;20242;-86
2022/12/03 03:44:11;;;;;;;0.30;0.30;;;4.50;99.90;;;;;;5005868;28;20221;-85
2022/12/03 03:46:38;;;;;;;0.30;0.30;;;4.50;99.90;;;;;;4968218;28;20812;-86
2022/12/03 03:49:05;;;;;;;0.40;0.40;;;4.40;99.90;;;;;;5006339;28;20500;-86
2022/12/03 03:51:32;;;;;;;0.30;0.30;;;4.40;99.90;;;;;;5047297;28;20432;-85
2022/12/03 03:53:58;;;;;;;0.30;0.30;;;4.40;99.90;;;;;;5011030;28;20942;-84
2022/12/03 03:56:23;;;;;;;0.30;0.30;;;4.30;99.90;;;;;;5011719;28;20444;-85
2022/12/03 03:58:49;;;;;;;0.30;0.30;;;4.20;99.90;;;;;;5050315;28;20182;-85
2022/12/03 04:01:16;;;;;;;0.30;0.30;;;4.20;99.90;;;;;;5051751;28;20182;-85
2022/12/03 04:03:42;;;;;;;0.40;0.40;;;4.20;99.90;;;;;;5052735;28;20260;-85
2022/12/03 04:06:08;;;;;;;0.30;0.30;;;4.20;99.90;;;;;;5007326;28;21099;-85
2022/12/03 04:08:33;;;;;;;0.30;0.30;;;4.20;99.90;;;;;;5050644;28;20558;-85
2022/12/03 04:13:43;;;;;;;0.20;0.20;;;4.20;99.90;;;;;;5029956;28;20199;-84
2022/12/03 04:16:08;;;;;;;0.30;0.30;;;4.10;99.90;;;;;;5050054;28;20441;-85
2022/12/03 04:18:43;;;;;;;0.20;0.20;;;4.10;99.90;;;;;;5050504;28;20189;-85
2022/12/03 04:24:05;;;;;;;0.30;0.30;;;4.00;99.90;;;;;;5009753;28;20587;-84
2022/12/03 04:29:14;;;;;;;0.20;0.20;;;3.90;99.90;;;;;;5049051;28;20455;-83
2022/12/03 04:37:09;;;;;;;0.30;0.30;;;3.90;99.90;;;;;;5049086;28;21032;-85
2022/12/03 04:39:34;;;;;;;0.20;0.20;;;3.90;99.90;;;;;;5025410;28;20524;-85
2022/12/03 04:42:00;;;;;;;0.30;0.30;;;3.90;99.90;;;;;;5050067;28;20496;-84
2022/12/03 04:44:32;;;;;;;0.30;0.30;;;3.80;99.90;;;;;;5049462;28;20205;-84
2022/12/03 04:47:17;;;;;;;0.30;0.30;;;3.90;99.90;;;;;;5049169;28;20442;-84
2022/12/03 04:49:45;;;;;;;0.30;0.30;;;3.90;99.90;;;;;;5050295;28;20475;-84
2022/12/03 04:52:12;;;;;;;0.30;0.30;;;3.90;99.90;;;;;;5050848;28;21175;-85
2022/12/03 04:54:38;;;;;;;0.30;0.30;;;3.80;99.90;;;;;;5049672;28;20544;-84
2022/12/03 04:57:04;;;;;;;0.30;0.30;;;3.80;99.90;;;;;;5049591;28;20453;-85
2022/12/03 04:59:30;;;;;;;0.30;0.30;;;3.90;99.90;;;;;;5049221;28;20445;-84
2022/12/03 05:01:55;;;;;;;0.20;0.20;;;3.90;99.90;;;;;;5049036;28;20515;-85
2022/12/03 05:04:21;;;;;;;0.30;0.30;;;3.90;99.90;;;;;;5050305;28;20230;-85
2022/12/03 05:06:47;;;;;;;0.30;0.30;;;3.80;99.90;;;;;;5026793;28;20191;-84
2022/12/03 05:09:12;;;;;;;0.30;0.30;;;3.80;99.90;;;;;;5045005;28;20187;-85
2022/12/03 05:11:38;;;;;;;0.30;0.30;;;3.80;99.90;;;;;;5019522;28;20193;-85
2022/12/03 05:14:04;;;;;;;0.20;0.20;;;3.80;99.90;;;;;;5004955;28;20265;-85
2022/12/03 05:16:30;;;;;;;0.30;0.30;;;3.80;99.90;;;;;;5046102;28;20516;-85
2022/12/03 05:18:55;;;;;;;0.30;0.30;;;3.70;99.90;;;;;;5032641;28;20709;-85
2022/12/03 05:21:21;;;;;;;0.20;0.20;;;3.70;99.90;;;;;;5050030;28;20197;-85
2022/12/03 05:23:47;;;;;;;0.30;0.30;;;3.50;99.90;;;;;;5049333;28;20775;-84
2022/12/03 05:26:12;;;;;;;0.30;0.30;;;3.50;99.90;;;;;;4989487;28;20199;-84
2022/12/03 05:28:38;;;;;;;0.30;0.30;;;3.50;99.90;;;;;;5028193;28;20248;-84
2022/12/03 05:31:03;;;;;;;0.40;0.40;;;3.40;99.90;;;;;;5047660;28;20191;-84
2022/12/03 05:33:29;;;;;;;0.30;0.30;;;3.50;99.90;;;;;;4969500;28;20192;-84
2022/12/03 05:35:55;;;;;;;0.40;0.40;;;3.50;99.90;;;;;;5040246;28;20863;-84
2022/12/03 05:38:20;;;;;;;0.20;0.20;;;3.50;99.90;;;;;;5048810;28;20301;-83
2022/12/03 05:40:46;;;;;;;0.30;0.30;;;3.50;99.90;;;;;;5049424;28;20209;-84
2022/12/03 05:43:11;;;;;;;0.30;0.30;;;3.50;99.90;;;;;;4994271;28;20239;-84
2022/12/03 05:45:39;;;;;;;0.30;0.30;;;3.50;99.90;;;;;;5015925;28;20191;-84
2022/12/03 05:48:08;;;;;;;0.30;0.30;;;3.50;99.90;;;;;;5015751;28;20642;-84
2022/12/03 05:50:35;;;;;;;0.30;0.30;;;3.50;99.90;;;;;;4948868;29;20446;-84
2022/12/03 05:53:01;;;;;;;0.20;0.20;;;3.40;99.90;;;;;;4948100;28;20431;-84
2022/12/03 05:55:27;;;;;;;0.37;0.37;;;3.40;99.90;;;;;;5007660;28;20462;-84
2022/12/03 05:57:52;;;;;;;0.30;0.30;;;3.40;99.90;;;;;;5014512;28;20462;-84
2022/12/03 06:00:27;;;;;;;0.30;0.30;;;3.40;99.90;;;;;;5018691;28;20477;-84
2022/12/03 06:02:53;;;;;;;0.30;0.30;;;3.40;99.90;;;;;;4950424;28;20250;-84
2022/12/03 06:05:19;;;;;;;0.30;0.30;;;3.40;99.90;;;;;;5032712;28;20484;-84
2022/12/03 06:07:45;;;;;;;0.30;0.30;;;3.40;99.90;;;;;;4955488;28;20502;-83
2022/12/03 06:10:14;;;;;;;0.30;0.30;;;3.30;99.90;;;;;;4961757;28;20461;-82
2022/12/03 06:12:40;;;;;;;0.40;0.40;;;3.30;99.90;;;;;;5027716;28;20453;-84
2022/12/03 06:15:07;;;;;;;0.30;0.30;;;3.40;99.90;;;;;;4950714;28;22430;-84
2022/12/03 06:17:33;;;;;;;0.30;0.30;;;3.40;99.90;;;;;;5013039;28;20193;-85
2022/12/03 06:19:58;;;;;;;0.40;0.40;;;3.40;99.90;;;;;;4953829;28;21039;-83
2022/12/03 06:22:24;;;;;;;0.30;0.30;;;3.40;99.90;;;;;;4955442;28;20219;-84
2022/12/03 06:24:50;;;;;;;0.30;0.30;;;3.40;99.90;;;;;;5011477;28;20199;-85
2022/12/03 06:27:17;;;;;;;0.30;0.30;;;3.40;99.90;;;;;;5018297;28;20284;-85
2022/12/03 06:29:42;;;;;;;0.30;0.30;;;3.40;99.90;;;;;;5011507;28;20190;-84
2022/12/03 06:32:08;;;;;;;0.30;0.30;;;3.40;99.90;;;;;;4963806;28;20437;-84
2022/12/03 06:34:33;;;;;;;0.30;0.30;;;3.40;99.90;;;;;;4981495;28;20295;-83
2022/12/03 06:36:59;;;;;;;0.30;0.30;;;3.40;99.90;;;;;;4947644;28;20195;-84
2022/12/03 06:39:25;;;;;;;0.23;0.23;;;3.40;99.90;;;;;;4946506;28;20229;-84
2022/12/03 06:41:50;;;;;;;0.30;0.30;;;3.40;99.90;;;;;;4972060;28;20235;-85
2022/12/03 06:44:16;;;;;;;0.40;0.40;;;3.40;99.90;;;;;;5041615;28;20738;-84
2022/12/03 06:46:41;;;;;;;0.40;0.40;;;3.40;99.90;;;;;;5040472;28;20194;-82
2022/12/03 06:49:10;;;;;;;0.40;0.40;;;3.40;99.90;;;;;;5043012;28;20182;-83
2022/12/03 06:51:36;;;;;;;0.40;0.40;;;3.30;99.90;;;;;;5049017;28;20270;-83
2022/12/03 06:54:03;;;;;;;0.30;0.30;;;3.20;99.90;;;;;;5045371;28;20932;-83
2022/12/03 06:56:29;;;;;;;0.30;0.30;;;3.20;99.90;;;;;;5040133;28;20471;-83
2022/12/03 06:58:54;;;;;;;0.33;0.33;;;3.20;99.90;;;;;;5024449;28;20480;-82
2022/12/03 07:01:22;;;;;;;0.40;0.40;;;3.20;99.90;;;;;;5042044;28;20595;-84
2022/12/03 07:03:47;;;;;;;0.40;0.40;;;3.20;99.90;;;;;;5029075;28;20226;-81
2022/12/03 07:06:13;;;;;;;0.40;0.40;;;3.10;99.90;;;;;;5036583;28;20465;-84
2022/12/03 07:08:39;;;;;;;0.40;0.40;;;3.10;99.90;;;;;;5043455;28;20657;-84
2022/12/03 07:11:04;;;;;;;0.33;0.33;;;3.00;99.90;;;;;;5012635;28;20441;-84
2022/12/03 07:13:30;;;;;;;0.30;0.30;;;3.00;99.90;;;;;;5022743;28;20183;-84
2022/12/03 07:15:55;;;;;;;0.40;0.40;;;3.00;99.90;;;;;;5044924;28;20226;-83
2022/12/03 07:18:21;;;;;;;0.40;0.40;;;3.10;99.90;;;;;;5039527;28;20730;-83
2022/12/03 07:20:46;;;;;;;0.40;0.40;;;3.00;99.90;;;;;;5020744;28;20183;-84
2022/12/03 07:23:12;;;;;;;0.30;0.30;;;3.00;99.90;;;;;;5026639;28;20219;-84
2022/12/03 07:25:37;;;;;;;0.40;0.40;;;2.90;99.90;;;;;;5024896;28;20214;-83
2022/12/03 07:28:03;;;;;;;0.30;0.30;;;3.00;99.90;;;;;;5042207;28;20191;-84
2022/12/03 07:30:28;;;;;;;0.40;0.40;;;3.00;99.90;;;;;;5022756;28;20236;-84
2022/12/03 07:32:54;;;;;;;0.40;0.40;;;3.00;99.90;;;;;;5045085;28;20670;-84
2022/12/03 07:35:20;;;;;;;0.30;0.30;;;2.90;99.90;;;;;;5043402;28;20190;-83
2022/12/03 07:37:46;;;;;;;0.30;0.30;;;2.90;99.90;;;;;;5040987;28;20202;-83
2022/12/03 07:40:11;;;;;;;0.30;0.30;;;2.90;99.90;;;;;;5052372;28;20921;-84
2022/12/03 07:42:37;;;;;;;0.40;0.40;;;2.90;99.90;;;;;;5042482;28;20819;-84
2022/12/03 07:45:03;;;;;;;0.30;0.30;;;2.90;99.90;;;;;;5041907;28;20432;-85
2022/12/03 07:47:29;;;;;;;0.30;0.30;;;2.90;99.90;;;;;;5033889;28;20207;-86
2022/12/03 07:49:54;;;;;;;0.40;0.40;;;2.90;99.90;;;;;;5024876;28;20858;-85
2022/12/03 07:52:20;;;;;;;0.40;0.40;;;3.00;99.90;;;;;;5049930;28;20191;-85
2022/12/03 07:54:45;;;;;;;0.20;0.20;;;2.90;99.90;;;;;;5042363;28;20238;-83
2022/12/03 07:57:11;;;;;;;0.40;0.40;;;2.90;99.90;;;;;;5046074;28;20190;-82
2022/12/03 07:59:36;;;;;;;0.27;0.27;;;2.90;99.90;;;;;;5025535;28;20199;-83
2022/12/03 08:02:02;;;;;;;0.30;0.30;;;2.90;99.90;;;;;;5036100;28;20244;-82
2022/12/03 08:04:27;;;;;;;0.40;0.40;;;2.90;99.90;;;;;;5041673;28;20588;-83
2022/12/03 08:06:53;;;;;;;0.30;0.30;;;2.90;99.90;;;;;;5042213;28;20202;-84
2022/12/03 08:09:18;;;;;;;0.33;0.33;;;2.90;99.90;;;;;;5039502;28;20195;-83
2022/12/03 08:11:46;;;;;;;0.40;0.40;;;2.90;99.90;;;;;;5042248;28;20262;-89
2022/12/03 08:14:14;;;;;;;0.30;0.30;;;3.00;99.90;;;;;;5048216;28;20202;-89
2022/12/03 08:16:41;;;;;;;0.40;0.40;;;2.90;99.90;;;;;;5061843;28;20528;-90
2022/12/03 08:19:11;;;;;;;0.37;0.37;;;3.00;99.90;;;;;;5065231;28;20522;-88
2022/12/03 08:21:37;;;;;;;0.30;0.30;;;3.00;99.90;;;;;;5045674;28;20462;-89
2022/12/03 08:24:15;;;;;;;0.30;0.30;;;3.00;99.90;;;;;;5065292;28;20487;-89
2022/12/03 08:26:43;;;;;;;0.37;0.37;;;3.00;99.90;;;;;;5056319;28;20437;-89
2022/12/03 08:29:10;;;;;;;0.40;0.40;;;3.00;99.90;;;;;;5050529;28;20476;-88
2022/12/03 08:31:36;;;;;;;0.40;0.40;;;3.00;99.90;;;;;;5040125;28;20968;-89
2022/12/03 08:34:19;;;;;;;0.30;0.30;;;3.00;99.90;;;;;;5041721;28;20453;-89
2022/12/03 08:36:45;;;;;;;0.40;0.40;;;2.90;99.90;;;;;;5042790;28;20441;-88
2022/12/03 08:39:34;;;;;;;0.40;0.40;;;2.90;99.90;;;;;;5037602;28;20528;-90
2022/12/03 08:45:28;;;;;;;0.30;0.30;;;2.80;99.90;;;;;;5034809;28;20593;-91
2022/12/03 08:47:57;;;;;;;0.40;0.40;;;2.80;99.90;;;;;;5041138;28;20483;-90
2022/12/03 08:50:32;;;;;;;0.30;0.30;;;2.80;99.90;;;;;;5052217;28;20433;-91
2022/12/03 08:53:10;;;;;;;0.30;0.30;;;2.90;99.90;;;;;;5042287;28;20536;-91
2022/12/03 08:55:38;;;;;;;0.30;0.30;;;2.90;99.90;;;;;;5037553;28;20542;-91
2022/12/03 08:58:29;;;;;;;0.30;0.30;;;2.90;99.90;;;;;;5049890;28;20464;-91
2022/12/03 09:01:10;;;;;;;0.40;0.40;;;2.80;99.90;;;;;;5045745;28;20536;-90
2022/12/03 09:03:38;;;;;;;0.40;0.40;;;2.70;99.90;;;;;;5045670;28;20484;-90
2022/12/03 09:06:04;;;;;;;0.30;0.30;;;2.80;99.90;;;;;;5046541;28;20441;-91
2022/12/03 09:08:30;;;;;;;0.30;0.30;;;2.70;99.90;;;;;;5041141;28;20921;-89
2022/12/03 09:10:55;;;;;;;0.30;0.30;;;2.80;99.90;;;;;;5044442;28;20527;-89
2022/12/03 09:13:21;;;;;;;0.33;0.33;;;2.70;99.90;;;;;;5033769;28;20289;-79
2022/12/03 09:15:46;;;;;;;0.30;0.30;;;2.80;99.90;;;;;;5032055;28;20666;-84
2022/12/03 09:18:13;;;;;;;0.40;0.40;;;2.80;99.90;;;;;;5049043;28;20236;-86
2022/12/03 09:20:39;;;;;;;0.30;0.30;;;2.80;99.90;;;;;;5031467;28;20187;-86
2022/12/03 09:23:05;;;;;;;0.40;0.40;;;2.80;99.90;;;;;;5055556;28;20457;-85
2022/12/03 09:25:30;;;;;;;0.40;0.40;;;2.80;99.90;;;;;;5025855;28;20954;-85
2022/12/03 09:27:56;;;;;;;0.40;0.40;;;2.80;99.90;;;;;;5044136;28;20448;-85
2022/12/03 09:30:21;;;;;;;0.40;0.40;;;2.80;99.90;;;;;;5048015;28;20249;-85
2022/12/03 09:32:47;;;;;;;0.40;0.40;;;2.80;99.90;;;;;;5047864;28;20560;-84
2022/12/03 09:35:12;;;;;;;0.30;0.30;;;2.80;99.90;;;;;;5035304;28;20820;-85
2022/12/03 09:37:38;;;;;;;0.20;0.20;;;2.80;99.90;;;;;;5033022;28;20187;-85
2022/12/03 09:40:04;;;;;;;0.30;0.30;;;2.80;99.90;;;;;;5056712;28;20206;-85
2022/12/03 09:42:30;;;;;;;0.40;0.40;;;2.80;99.90;;;;;;5046225;28;20245;-85
2022/12/03 09:44:55;;;;;;;0.30;0.30;;;2.90;99.90;;;;;;5050329;28;20774;-85
2022/12/03 09:47:22;;;;;;;0.30;0.30;;;2.90;99.90;;;;;;5059885;28;20647;-85
2022/12/03 09:49:47;;;;;;;0.40;0.40;;;2.90;99.90;;;;;;5052947;28;20183;-85
2022/12/03 09:52:26;;;;;;;0.40;0.40;;;2.90;99.90;;;;;;5048795;28;20433;-85
2022/12/03 09:54:52;;;;;;;0.40;0.40;;;2.90;99.90;;;;;;5042316;28;20194;-85
2022/12/03 09:57:18;;;;;;;0.40;0.40;;;3.00;99.90;;;;;;5042201;28;20936;-85
2022/12/03 09:59:44;;;;;;;0.30;0.30;;;3.00;99.90;;;;;;5049171;28;20194;-85
2022/12/03 10:02:23;;;;;;;0.37;0.37;;;3.00;99.90;;;;;;5040848;28;20438;-85
2022/12/03 10:04:48;;;;;;;0.40;0.40;;;3.00;99.90;;;;;;5049628;28;20561;-85
2022/12/03 10:07:14;;;;;;;0.30;0.30;;;3.00;99.90;;;;;;5046444;28;20560;-85
2022/12/03 10:09:40;;;;;;;0.30;0.30;;;3.00;99.90;;;;;;5042757;28;20260;-85
2022/12/03 10:12:10;;;;;;;0.30;0.30;;;2.90;99.90;;;;;;5043726;28;20516;-85
2022/12/03 10:14:35;;;;;;;0.40;0.40;;;2.90;99.90;;;;;;5043525;28;20178;-85
2022/12/03 10:17:02;;;;;;;0.30;0.30;;;3.00;99.90;;;;;;5051545;28;20475;-84
2022/12/03 10:19:30;;;;;;;0.40;0.40;;;2.90;99.90;;;;;;5047804;28;20189;-85
2022/12/03 10:21:56;;;;;;;0.40;0.40;;;3.00;99.90;;;;;;5049741;28;20434;-85
2022/12/03 10:24:32;;;;;;;0.30;0.30;;;3.00;99.90;;;;;;5054659;28;20531;-85
2022/12/03 10:27:00;;;;;;;0.30;0.30;;;3.00;99.90;;;;;;5042272;28;20180;-85
2022/12/03 10:29:29;;;;;;;0.30;0.30;;;3.00;99.90;;;;;;5047123;28;20476;-85
2022/12/03 10:32:06;;;;;;;0.37;0.37;;;3.00;99.90;;;;;;5040267;28;20465;-85
2022/12/03 10:34:37;;;;;;;0.30;0.30;;;2.90;99.90;;;;;;5055684;28;20472;-85
2022/12/03 10:37:18;;;;;;;0.30;0.30;;;3.00;99.90;;;;;;5040549;28;20449;-85
2022/12/03 10:40:11;;;;;;;0.40;0.40;;;3.00;99.90;;;;;;5027636;28;20446;-86
2022/12/03 10:42:39;;;;;;;0.40;0.40;;;3.10;99.90;;;;;;5039807;28;20492;-85
2022/12/03 10:45:19;;;;;;;0.30;0.30;;;3.10;99.90;;;;;;5012147;28;20813;-86
2022/12/03 10:48:04;;;;;;;0.33;0.33;;;3.00;99.90;;;;;;5036466;28;20429;-86
2022/12/03 10:50:30;;;;;;;0.40;0.40;;;3.00;99.90;;;;;;5043654;28;20491;-85
2022/12/03 10:52:55;;;;;;;0.40;0.40;;;3.00;99.90;;;;;;5042315;28;20446;-86
2022/12/03 10:55:21;;;;;;;0.40;0.40;;;3.00;99.90;;;;;;5055485;28;20451;-87
2022/12/03 10:57:47;;;;;;;0.40;0.40;;;3.00;99.90;;;;;;5032501;28;20195;-85
2022/12/03 11:00:17;;;;;;;0.30;0.30;;;3.10;99.90;;;;;;5046283;28;20667;-85
2022/12/03 11:02:43;;;;;;;0.30;0.30;;;3.10;99.90;;;;;;5046561;28;20218;-85
2022/12/03 11:05:15;;;;;;;0.40;0.40;;;3.10;99.90;;;;;;5031593;28;20558;-85
2022/12/03 11:07:42;;;;;;;0.30;0.30;;;3.10;99.90;;;;;;5019593;28;20183;-87
2022/12/03 11:10:13;;;;;;;0.40;0.40;;;3.10;99.90;;;;;;5044659;28;20456;-85
2022/12/03 11:12:39;;;;;;;0.40;0.40;;;3.10;99.90;;;;;;5045897;28;20434;-86
2022/12/03 11:15:06;;;;;;;0.30;0.30;;;3.20;99.90;;;;;;5046262;28;20958;-87
2022/12/03 11:17:50;;;;;;;0.40;0.40;;;3.20;99.90;;;;;;5051901;28;20186;-85
2022/12/03 11:20:24;;;;;;;0.40;0.40;;;3.20;99.90;;;;;;5039437;28;20450;-85
2022/12/03 11:22:50;;;;;;;0.30;0.30;;;3.10;99.90;;;;;;5048832;28;20479;-86
2022/12/03 11:25:27;;;;;;;0.40;0.40;;;3.10;99.90;;;;;;5041045;28;20511;-85
2022/12/03 11:28:14;;;;;;;0.40;0.40;;;3.10;99.90;;;;;;5057194;28;20193;-85
2022/12/03 11:30:52;;;;;;;0.30;0.30;;;3.10;99.90;;;;;;5054438;28;20444;-87
2022/12/03 11:33:23;;;;;;;0.30;0.30;;;3.20;99.90;;;;;;5012351;28;20469;-86
2022/12/03 11:36:03;;;;;;;0.30;0.30;;;3.10;99.90;;;;;;5044186;28;20522;-86
2022/12/03 11:38:43;;;;;;;0.30;0.30;;;3.10;99.90;;;;;;5054847;28;20436;-87
2022/12/03 11:41:10;;;;;;;0.40;0.40;;;3.10;99.90;;;;;;5041564;28;20497;-86
2022/12/03 11:43:56;;;;;;;0.37;0.37;;;3.20;99.90;;;;;;5052150;28;20973;-86
2022/12/03 11:46:36;;;;;;;0.20;0.20;;;3.20;99.90;;;;;;5045861;28;20456;-85
2022/12/03 11:49:03;;;;;;;0.30;0.30;;;3.20;99.90;;;;;;5050969;28;20480;-85
2022/12/03 11:51:29;;;;;;;0.30;0.30;;;3.10;99.90;;;;;;5040469;28;20518;-85
2022/12/03 11:53:58;;;;;;;0.30;0.30;;;3.10;99.90;;;;;;5034683;28;20702;-85
2022/12/03 11:56:25;;;;;;;0.30;0.30;;;3.20;99.90;;;;;;5024445;28;20448;-85
2022/12/03 11:59:03;;;;;;;0.30;0.30;;;3.20;99.90;;;;;;5029992;28;20809;-85
2022/12/03 12:01:39;;;;;;;0.30;0.30;;;3.30;99.90;;;;;;5026991;28;20444;-85
2022/12/03 12:04:07;;;;;;;0.30;0.30;;;3.30;99.90;;;;;;5051358;28;20498;-86
2022/12/03 12:06:40;;;;;;;0.30;0.30;;;3.40;99.90;;;;;;5035300;28;20472;-85
2022/12/03 12:09:07;;;;;;;0.40;0.40;;;3.30;99.90;;;;;;5027531;28;20905;-85
2022/12/03 12:11:34;;;;;;;0.40;0.40;;;3.30;99.90;;;;;;5030025;28;20465;-85
2022/12/03 12:14:08;;;;;;;0.30;0.30;;;3.40;99.90;;;;;;5040824;28;20450;-85
2022/12/03 12:16:37;;;;;;;0.30;0.30;;;3.40;99.90;;;;;;5044563;28;20445;-86
2022/12/03 12:19:41;;;;;;;0.40;0.40;;;3.40;99.90;;;;;;5047417;28;20445;-85
2022/12/03 12:22:29;;;;;;;0.30;0.30;;;3.40;99.90;;;;;;5030942;28;20453;-85
2022/12/03 12:24:57;;;;;;;0.30;0.30;;;3.30;99.90;;;;;;5049454;28;20467;-85
2022/12/03 12:27:33;;;;;;;0.30;0.30;;;3.30;99.90;;;;;;5045825;28;20511;-85
2022/12/03 12:30:06;;;;;;;0.30;0.30;;;3.30;99.90;;;;;;5048575;28;20424;-85
2022/12/03 12:32:47;;;;;;;0.40;0.40;;;3.40;99.90;;;;;;5043631;28;20445;-85
2022/12/03 12:35:25;;;;;;;0.30;0.30;;;3.40;99.90;;;;;;5052653;28;20928;-85
2022/12/03 12:37:53;;;;;;;0.30;0.30;;;3.40;99.90;;;;;;5039286;28;20442;-84
2022/12/03 12:40:22;;;;;;;0.30;0.30;;;3.40;99.90;;;;;;5043097;28;20442;-85
2022/12/03 12:42:51;;;;;;;0.40;0.40;;;3.40;99.90;;;;;;5046949;28;20564;-84
2022/12/03 12:45:20;;;;;;;0.20;0.20;;;3.40;99.90;;;;;;5043297;28;20441;-84
2022/12/03 12:47:52;;;;;;;0.30;0.30;;;3.40;99.90;;;;;;5037242;28;20430;-85
2022/12/03 12:50:19;;;;;;;0.40;0.40;;;3.30;99.90;;;;;;5018468;28;20452;-85
2022/12/03 12:53:01;;;;;;;0.30;0.30;;;3.30;99.90;;;;;;5036563;28;20496;-83
2022/12/03 12:55:26;;;;;;;0.40;0.40;;;3.20;99.90;;;;;;5030062;28;21161;-83
2022/12/03 12:57:55;;;;;;;0.40;0.40;;;3.10;99.90;;;;;;5044014;28;20802;-83
2022/12/03 13:00:22;;;;;;;0.30;0.30;;;3.10;99.90;;;;;;5039589;28;20274;-83
2022/12/03 13:02:59;;;;;;;0.37;0.37;;;3.20;99.90;;;;;;5031445;28;20474;-85
2022/12/03 13:05:30;;;;;;;0.40;0.40;;;3.30;99.90;;;;;;5045459;28;20542;-85
2022/12/03 13:07:56;;;;;;;0.40;0.40;;;3.20;99.90;;;;;;5029077;28;20449;-85
2022/12/03 13:10:37;;;;;;;0.40;0.40;;;3.00;99.90;;;;;;5043700;28;20475;-84
2022/12/03 13:13:22;;;;;;;0.40;0.40;;;2.90;99.90;;;;;;5017992;28;20677;-85
2022/12/03 13:15:50;;;;;;;0.40;0.40;;;2.80;99.90;;;;;;5044301;28;20480;-84
2022/12/03 13:18:29;;;;;;;0.30;0.30;;;2.80;99.90;;;;;;5036011;28;20459;-84
2022/12/03 13:20:55;;;;;;;0.40;0.40;;;2.70;99.90;;;;;;5031656;28;20983;-84
2022/12/03 13:23:28;;;;;;;0.30;0.30;;;2.70;99.90;;;;;;5032787;28;20599;-84
2022/12/03 13:25:53;;;;;;;0.40;0.40;;;2.70;99.90;;;;;;5026082;28;20928;-84